Latest Weather Observations for Kununurra Airport

IDW60801

Issued at 4:33 pm WST Friday 20 October 2017 (issued every 30 minutes, with the page automatically refreshed every 10 minutes)

About weather observations | Map of weather stations | Latest weather observations for WA | Other Formats
Station Details ID: 002056 Name: KUNUNURRA AERO Lat: -15.78 Lon: 128.71 Height: 44.0 m
Data from the previous 72 hours. | See also: Recent months at Kununurra Airport
Date/Time
WST
Temp
°C
App
Temp
°C
Dew
Point
°C
Rel
Hum
%
Delta-T
°C
Wind Press
QNH
hPa
Press
MSL
hPa
Rain since
9am
mm
Dir  Spd
km/h
Gust
km/h
Spd
kts
Gust
kts
20/04:30pm 29.3 31.5 21.8 64 5.1 N 13 17 7 9 1009.4 1009.1 2.2
20/04:00pm 29.9 31.7 21.8 62 5.5 N 15 20 8 11 1009.1 1008.8 2.2
20/03:30pm 29.9 33.3 23.3 67 4.5 N 11 13 6 7 1008.9 1008.6 2.2
20/03:00pm 30.6 33.8 23.0 64 5.2 NNE 11 17 6 9 1009.0 1008.7 2.2
20/02:30pm 30.3 33.6 22.5 63 5.3 NNW 9 13 5 7 1009.0 1008.7 2.2
20/02:00pm 31.9 33.3 22.9 59 6.2 ESE 20 33 11 18 1010.3 1010.0 2.2
20/01:30pm 30.5 34.5 23.7 67 4.7 WNW 9 15 5 8 1009.9 1009.6 2.2
20/01:00pm 28.5 30.3 24.3 78 2.9 NNE 22 37 12 20 1010.6 1010.3 2.2
20/12:48pm 27.4 30.2 24.3 83 2.1 W 17 30 9 16 1010.7 1010.4 2.2
20/12:35pm 26.5 25.1 22.3 78 2.8 W 33 50 18 27 1010.3 1010.0 2.2
20/12:30pm 26.6 24.0 22.2 77 3.0 WSW 39 56 21 30 1010.5 1010.2 2.0
20/12:28pm 26.5 24.0 22.3 78 2.8 SW 39 56 21 30 1010.6 1010.3 2.0
20/12:25pm 27.1 25.1 22.5 76 3.1 SSW 37 56 20 30 1010.5 1010.2 0.6
20/12:23pm 27.0 25.1 22.0 74 3.4 S 35 56 19 30 1010.3 1010.0 0.0
20/12:20pm 27.9 26.5 22.2 71 3.8 SSE 33 56 18 30 1010.1 1009.8 0.0
20/12:17pm 31.4 29.3 21.6 56 6.6 SE 35 52 19 28 1010.1 1009.8 0.0
20/12:11pm 31.5 31.6 20.4 51 7.4 SSE 20 52 11 28 1010.3 1010.0 0.0
20/12:08pm 35.1 37.4 19.9 41 10.1 SSW 7 50 4 27 1010.4 1010.1 0.0
20/12:00pm 37.5 39.0 19.0 34 12.3 NNE 9 15 5 8 1009.8 1009.5 0.0
20/11:30am 38.1 40.3 20.4 35 12.0 WSW 9 17 5 9 1010.3 1010.0 0.0
20/11:00am 37.6 40.0 20.8 37 11.4 ENE 9 20 5 11 1011.3 1011.0 0.0
20/10:30am 37.3 39.2 21.4 39 10.9 NW 13 19 7 10 1011.8 1011.5 0.0
20/10:00am 36.1 38.6 21.1 41 10.2 S 9 13 5 7 1012.3 1012.0 0.0
20/09:30am 35.2 37.9 22.2 47 8.9 NW 11 20 6 11 1012.4 1012.1 0.0
20/09:00am 35.4 38.6 23.0 48 8.6 WNW 11 15 6 8 1012.4 1012.1 -
20/08:30am 33.4 37.2 23.4 55 6.9 NNW 9 17 5 9 1012.9 1012.6 -
20/08:00am 32.2 37.2 24.8 65 5.2 N 7 17 4 9 1013.0 1012.7 -
20/07:30am 30.8 35.4 24.7 70 4.3 NNW 9 15 5 8 1013.1 1012.8 -
20/07:10am 29.9 34.8 25.2 76 3.3 N 9 13 5 7 1012.9 1012.6 -
20/07:00am 29.4 34.7 25.2 78 3.0 N 7 11 4 6 1012.7 1012.4 -
20/06:46am 29.0 34.0 25.4 81 2.5 N 9 11 5 6 1012.6 1012.3 -
20/06:42am 28.9 33.8 25.3 81 2.5 N 9 11 5 6 1012.6 1012.3 -
20/06:30am 28.7 34.1 25.5 83 2.3 N 7 11 4 6 1012.5 1012.2 -
20/06:00am 28.3 34.8 25.1 83 2.2 CALM 0 0 0 0 1012.1 1011.8 -
20/05:30am 26.9 32.6 23.8 83 2.1 CALM 0 0 0 0 1011.7 1011.4 -
20/05:24am 26.6 32.4 23.9 85 1.9 CALM 0 0 0 0 1011.6 1011.3 -
20/05:01am 26.6 32.2 24.8 90 1.3 SE 4 9 2 5 1011.3 1011.0 -
20/05:00am 26.6 32.1 24.6 89 1.4 SE 4 9 2 5 1011.3 1011.0 -
20/04:41am 26.0 31.2 23.5 86 1.7 SSE 2 6 1 3 1010.8 1010.5 -
20/04:30am 25.7 31.0 23.0 85 1.8 CALM 0 0 0 0 1010.7 1010.4 -
20/04:11am 26.0 31.2 22.9 83 2.1 CALM 0 0 0 0 1010.5 1010.2 -
20/04:00am 26.0 31.2 22.9 83 2.1 CALM 0 0 0 0 1010.3 1010.0 -
20/03:53am 25.9 31.3 23.2 85 1.8 CALM 0 0 0 0 1010.3 1010.0 -
20/03:30am 26.3 31.8 23.4 84 2.0 CALM 0 0 0 0 1010.0 1009.7 -
20/03:07am 26.5 31.9 23.2 82 2.2 CALM 0 0 0 0 1009.8 1009.5 -
20/03:00am 26.6 31.8 23.5 83 2.1 SSW 2 7 1 4 1009.8 1009.5 0.0
20/02:47am 26.1 30.2 23.0 83 2.1 WSW 6 7 3 4 1009.8 1009.5 -
20/02:30am 26.2 31.1 22.3 79 2.6 CALM 0 6 0 3 1009.7 1009.4 -
20/02:00am 26.1 30.2 22.2 79 2.6 NNE 4 7 2 4 1009.5 1009.2 -
20/01:56am 26.2 30.1 22.5 80 2.5 NNE 6 7 3 4 1009.5 1009.2 -
20/01:30am 27.0 30.9 22.6 77 3.0 S 6 7 3 4 1009.6 1009.3 -
20/01:16am 26.5 30.5 22.8 80 2.5 SSW 6 9 3 5 1009.7 1009.4 -
20/01:02am 27.0 31.9 22.4 76 3.1 CALM 0 6 0 3 1009.6 1009.3 -
20/01:00am 26.8 31.7 22.4 77 3.0 CALM 0 0 0 0 1009.6 1009.3 -
20/12:46am 27.5 31.8 23.3 78 2.9 SSE 6 9 3 5 1009.6 1009.3 -
20/12:32am 27.3 32.2 22.3 74 3.4 CALM 0 0 0 0 1009.4 1009.1 -
20/12:30am 27.3 32.2 22.3 74 3.4 CALM 0 0 0 0 1009.4 1009.1 -
20/12:21am 27.3 31.3 22.0 73 3.6 NE 4 7 2 4 1009.4 1009.1 -
20/12:14am 27.3 31.3 22.0 73 3.6 N 4 7 2 4 1009.6 1009.3 -
20/12:03am 27.0 31.7 22.0 74 3.4 CALM 0 2 0 1 1009.5 1009.2 -
20/12:00am 27.1 31.7 21.8 73 3.6 CALM 0 6 0 3 1009.4 1009.1 -
 
Date/Time
WST
Temp
°C
App
Temp
°C
Dew
Point
°C
Rel
Hum
%
Delta-T
°C
Wind Press
QNH
hPa
Press
MSL
hPa
Rain since
9am
mm
Dir  Spd
km/h
Gust
km/h
Spd
kts
Gust
kts
19/11:30pm 27.2 31.4 22.4 75 3.2 N 4 7 2 4 1009.6 1009.3 -
19/11:14pm 27.0 30.6 22.0 74 3.4 N 6 7 3 4 1009.6 1009.3 -
19/11:00pm 27.0 30.1 21.5 72 3.7 NW 7 9 4 5 1009.6 1009.3 -
19/10:59pm 27.0 30.1 21.5 72 3.7 NW 7 9 4 5 1009.6 1009.3 -
19/10:46pm 26.9 30.1 21.2 71 3.8 NW 6 7 3 4 1009.6 1009.3 -
19/10:30pm 27.3 30.9 21.3 69 4.0 NW 4 6 2 3 1009.8 1009.5 -
19/10:28pm 27.5 31.2 21.5 70 4.0 NW 4 6 2 3 1009.8 1009.5 -
19/10:27pm 27.4 31.2 21.7 71 3.8 NW 4 6 2 3 1009.8 1009.5 -
19/10:12pm 27.1 31.0 21.2 70 3.9 NNE 2 7 1 4 1010.1 1009.8 -
19/10:00pm 27.4 31.7 21.2 69 4.1 CALM 0 0 0 0 1010.1 1009.8 -
19/09:30pm 27.9 31.5 21.2 67 4.5 NE 4 7 2 4 1010.2 1009.9 -
19/09:00pm 28.2 32.5 21.2 65 4.7 CALM 0 0 0 0 1009.7 1009.4 -
19/08:30pm 28.3 32.7 21.3 65 4.7 CALM 0 0 0 0 1009.7 1009.4 -
19/08:00pm 28.5 31.8 21.5 66 4.7 NE 6 7 3 4 1009.6 1009.3 -
19/07:36pm 28.5 31.6 21.5 66 4.7 NNE 7 9 4 5 1009.4 1009.1 -
19/07:30pm 28.5 31.8 21.8 67 4.5 N 7 9 4 5 1009.3 1009.0 -
19/07:22pm 28.7 31.9 21.7 66 4.7 N 7 9 4 5 1009.4 1009.1 -
19/07:00pm 28.9 31.9 21.9 66 4.7 NNE 9 15 5 8 1009.2 1008.9 -
19/06:30pm 29.3 31.1 21.8 64 5.1 N 15 17 8 9 1009.0 1008.7 -
19/06:00pm 29.7 31.4 22.4 65 5.0 N 17 24 9 13 1008.7 1008.4 -
19/05:30pm 30.3 30.0 22.5 63 5.3 N 28 39 15 21 1008.1 1007.8 -
19/05:00pm 32.7 32.4 22.5 55 7.0 NNE 28 43 15 23 1007.3 1007.0 -
19/04:30pm 35.8 36.0 22.0 44 9.5 N 24 30 13 16 1006.3 1006.0 -
19/04:00pm 35.8 35.6 22.0 44 9.5 N 26 35 14 19 1005.7 1005.4 -
19/03:30pm 36.9 36.8 22.2 42 10.1 NNE 26 33 14 18 1005.4 1005.1 0.0
19/03:00pm 39.2 39.2 16.2 26 14.8 SSW 11 15 6 8 1005.2 1004.9 0.0
19/02:30pm 39.8 40.7 16.7 26 15.0 WSW 7 9 4 5 1005.5 1005.2 0.0
19/02:00pm 38.7 39.2 17.5 29 13.9 NNE 11 20 6 11 1005.8 1005.5 0.0
19/01:34pm 39.7 41.3 19.9 31 13.4 NNE 11 24 6 13 1006.2 1005.9 0.0
19/01:30pm 38.7 40.1 19.5 32 12.9 SE 11 24 6 13 1006.2 1005.9 0.0
19/01:18pm 38.2 39.4 19.1 32 12.7 SSW 11 17 6 9 1006.5 1006.2 0.0
19/01:00pm 37.9 39.1 19.8 35 12.2 N 13 24 7 13 1007.0 1006.7 0.0
19/12:30pm 37.9 40.4 20.2 35 11.9 NNE 7 15 4 8 1007.7 1007.4 0.0
19/12:00pm 37.1 38.3 20.0 37 11.5 ENE 13 20 7 11 1008.1 1007.8 0.0
19/11:30am 36.7 38.4 20.9 39 10.7 N 13 24 7 13 1008.6 1008.3 0.0
19/11:00am 36.6 38.9 22.0 43 10.1 N 13 30 7 16 1009.0 1008.7 0.0
19/10:30am 35.7 38.5 23.0 48 8.8 N 13 22 7 12 1009.6 1009.3 0.0
19/10:00am 34.9 37.4 23.2 50 8.1 NNE 15 26 8 14 1009.9 1009.6 0.0
19/09:30am 33.9 35.7 23.3 54 7.4 NNE 19 26 10 14 1010.1 1009.8 0.0
19/09:00am 33.1 36.3 23.7 57 6.6 N 13 19 7 10 1010.5 1010.2 0.0
19/08:41am 32.6 36.4 24.1 61 5.9 N 11 17 6 9 1010.6 1010.3 0.0
19/08:30am 31.3 34.9 23.7 64 5.3 N 11 19 6 10 1010.6 1010.3 0.0
19/08:25am 31.7 35.1 24.0 63 5.4 N 13 19 7 10 1010.6 1010.3 0.0
19/08:00am 31.2 34.8 24.3 66 4.8 NNE 13 20 7 11 1010.7 1010.4 0.0
19/07:34am 31.0 33.6 24.6 68 4.5 NNE 19 20 10 11 1010.5 1010.2 0.0
19/07:30am 30.0 33.3 25.1 75 3.5 NNE 17 20 9 11 1010.5 1010.2 0.0
19/07:22am 30.2 34.0 25.3 75 3.5 NNE 15 19 8 10 1010.4 1010.1 0.0
19/07:17am 28.9 32.9 25.1 80 2.7 N 13 17 7 9 1010.3 1010.0 0.0
19/07:05am 29.2 33.3 25.2 79 2.8 N 13 17 7 9 1010.2 1009.9 0.0
19/07:00am 29.0 32.7 25.2 80 2.7 NNE 15 19 8 10 1010.2 1009.9 0.0
19/06:30am 28.6 33.7 25.6 84 2.1 NNE 9 13 5 7 1009.8 1009.5 0.0
19/06:21am 28.6 34.1 25.6 84 2.1 NE 7 11 4 6 1009.7 1009.4 0.0
19/06:01am 28.1 34.4 25.3 85 2.0 NE 2 7 1 4 1009.4 1009.1 0.0
19/06:00am 27.9 33.9 24.9 84 2.1 NE 2 6 1 3 1009.3 1009.0 0.0
19/05:30am 25.9 31.8 24.1 90 1.2 CALM 0 0 0 0 1008.8 1008.5 0.0
19/05:00am 25.3 29.5 24.1 93 0.8 N 9 11 5 6 1008.2 1007.9 0.0
19/04:57am 25.3 30.1 24.1 93 0.8 N 6 11 3 6 1008.1 1007.8 0.0
19/04:53am 25.4 30.5 24.0 92 1.0 N 4 11 2 6 1008.1 1007.8 0.0
19/04:30am 25.3 29.8 23.7 91 1.1 NNE 6 9 3 5 1007.9 1007.6 0.0
19/04:00am 25.4 29.7 23.6 90 1.2 NE 7 9 4 5 1007.6 1007.3 0.0
19/03:34am 25.6 31.4 24.0 91 1.1 CALM 0 0 0 0 1007.2 1006.9 0.0
19/03:33am 25.7 31.6 24.1 91 1.1 CALM 0 0 0 0 1007.2 1006.9 0.0
19/03:30am 25.6 31.2 23.5 88 1.4 CALM 0 0 0 0 1007.2 1006.9 0.0
19/03:09am 25.8 31.4 23.5 87 1.6 CALM 0 0 0 0 1007.2 1006.9 0.0
19/03:07am 25.8 31.5 23.7 88 1.4 CALM 0 0 0 0 1007.2 1006.9 0.0
19/03:00am 25.6 30.9 23.1 86 1.7 CALM 0 0 0 0 1007.2 1006.9 0.0
19/02:30am 26.3 32.4 24.5 90 1.2 CALM 0 0 0 0 1006.9 1006.6 0.0
19/02:29am 26.2 32.3 24.4 90 1.2 CALM 0 0 0 0 1006.9 1006.6 0.0
19/02:22am 26.2 32.1 24.1 88 1.4 CALM 0 0 0 0 1006.9 1006.6 0.0
19/02:05am 26.9 33.0 24.5 87 1.7 CALM 0 0 0 0 1006.9 1006.6 0.0
19/02:00am 26.8 33.0 24.6 88 1.5 CALM 0 4 0 2 1006.9 1006.6 0.0
19/01:30am 27.0 31.6 24.8 88 1.5 N 9 11 5 6 1006.9 1006.6 0.0
19/01:12am 27.3 32.0 24.9 87 1.7 N 9 11 5 6 1007.1 1006.8 0.0
19/01:00am 27.6 32.3 25.0 86 1.8 N 9 13 5 7 1007.3 1007.0 0.0
19/12:30am 28.0 32.1 25.2 85 2.0 N 13 17 7 9 1007.5 1007.2 0.0
19/12:00am 27.9 31.9 25.1 85 2.0 N 13 15 7 8 1007.7 1007.4 0.0
 
Date/Time
WST
Temp
°C
App
Temp
°C
Dew
Point
°C
Rel
Hum
%
Delta-T
°C
Wind Press
QNH
hPa
Press
MSL
hPa
Rain since
9am
mm
Dir  Spd
km/h
Gust
km/h
Spd
kts
Gust
kts
18/11:30pm 28.0 31.7 25.2 85 2.0 N 15 19 8 10 1007.9 1007.6 0.0
18/11:00pm 28.0 32.1 25.2 85 2.0 NNE 13 19 7 10 1008.3 1008.0 0.0
18/10:49pm 27.9 32.3 25.1 85 2.0 NNE 11 15 6 8 1008.2 1007.9 0.0
18/10:42pm 27.9 32.3 25.1 85 2.0 NNE 11 15 6 8 1008.2 1007.9 0.0
18/10:30pm 28.1 32.1 25.1 84 2.1 N 13 15 7 8 1008.2 1007.9 0.0
18/10:26pm 28.2 32.3 25.2 84 2.1 N 13 15 7 8 1008.2 1007.9 0.0
18/10:00pm 28.7 32.4 25.1 81 2.5 N 15 20 8 11 1008.3 1008.0 0.0
18/09:30pm 29.0 33.1 25.2 80 2.7 N 13 20 7 11 1008.3 1008.0 0.0
18/09:25pm 29.0 33.1 25.2 80 2.7 N 13 17 7 9 1008.2 1007.9 0.0
18/09:11pm 29.1 33.5 25.1 79 2.8 N 11 15 6 8 1008.2 1007.9 0.0
18/09:00pm 29.4 33.3 24.9 77 3.2 NNE 13 20 7 11 1008.2 1007.9 0.0
18/08:49pm 29.6 32.4 24.9 76 3.3 N 19 24 10 13 1007.9 1007.6 0.0
18/08:30pm 30.0 32.7 25.1 75 3.5 N 20 26 11 14 1007.7 1007.4 0.0
18/08:09pm 30.5 33.1 24.6 70 4.1 N 19 28 10 15 1007.3 1007.0 0.0
18/08:00pm 30.7 33.3 24.6 70 4.3 NNE 19 26 10 14 1007.3 1007.0 0.0
18/07:50pm 31.0 33.1 24.1 66 4.8 N 20 26 11 14 1007.1 1006.8 0.0
18/07:30pm 31.7 33.5 23.2 60 5.9 NNE 19 26 10 14 1006.8 1006.5 0.0
18/07:00pm 32.8 34.2 22.6 55 7.0 N 19 20 10 11 1006.0 1005.7 0.0
18/06:30pm 32.7 34.0 18.5 43 9.2 N 9 17 5 9 1005.5 1005.2 0.0
18/06:00pm 34.5 34.8 14.4 30 12.4 E 6 7 3 4 1004.7 1004.4 0.0
18/05:30pm 36.2 35.4 13.0 24 14.1 ENE 9 11 5 6 1004.4 1004.1 0.0
18/05:00pm 38.8 36.7 11.0 19 16.6 E 13 17 7 9 1003.9 1003.6 0.0
18/04:30pm 39.7 36.9 10.1 17 17.5 ESE 15 19 8 10 1003.6 1003.3 0.0
18/04:00pm 40.5 38.0 9.8 16 18.2 ESE 13 17 7 9 1003.4 1003.1 0.0
18/03:30pm 40.9 38.0 8.1 14 18.9 SE 13 19 7 10 1003.1 1002.8 0.0
18/03:00pm 41.4 37.2 7.4 13 19.6 ESE 19 30 10 16 1003.2 1002.9 0.0
18/02:30pm 41.7 37.6 7.7 13 19.6 E 19 30 10 16 1003.4 1003.1 0.0
18/02:00pm 41.9 38.4 8.9 14 19.4 SE 17 26 9 14 1003.6 1003.3 0.0
18/01:30pm 41.9 38.4 8.9 14 19.4 SE 17 26 9 14 1003.8 1003.5 0.0
18/01:00pm 41.4 37.7 9.6 15 18.9 ESE 19 32 10 17 1004.4 1004.1 0.0
18/12:30pm 40.4 37.8 10.6 17 17.8 SE 15 20 8 11 1005.1 1004.8 0.0
18/12:00pm 40.8 39.9 12.6 19 17.4 NNW 9 17 5 9 1005.6 1005.3 0.0
18/11:30am 39.9 37.6 11.9 19 17.0 ENE 15 28 8 15 1006.2 1005.9 0.0
18/11:00am 40.2 37.6 12.1 19 17.2 E 17 33 9 18 1006.5 1006.2 0.0
18/10:30am 38.6 38.6 16.3 27 14.3 NE 11 17 6 9 1007.1 1006.8 0.0
18/10:00am 38.3 37.5 12.8 22 15.6 SE 9 15 5 8 1007.9 1007.6 0.0
18/09:30am 36.5 38.2 19.4 36 11.4 SSE 9 13 5 7 1008.2 1007.9 0.0
18/09:00am 35.3 39.4 23.3 50 8.4 SSE 7 11 4 6 1008.5 1008.2 0.0
18/08:32am 33.7 38.2 23.7 56 7.0 ESE 6 9 3 5 1008.6 1008.3 0.0
18/08:30am 33.6 38.1 23.6 56 7.0 SSE 6 7 3 4 1008.6 1008.3 0.0
18/08:22am 32.6 37.6 23.8 59 6.1 S 4 9 2 5 1008.7 1008.4 0.0
18/08:00am 32.1 36.9 24.2 63 5.5 NW 6 9 3 5 1008.8 1008.5 0.0
18/07:30am 30.2 35.3 24.1 70 4.2 NNW 4 9 2 5 1008.8 1008.5 0.0
18/07:00am 28.9 34.0 24.7 78 2.9 N 6 9 3 5 1008.7 1008.4 0.0
18/06:59am 28.8 34.0 24.8 79 2.8 N 6 9 3 5 1008.7 1008.4 0.0
18/06:30am 27.6 32.9 25.0 86 1.8 N 6 9 3 5 1008.5 1008.2 0.0
18/06:17am 27.1 33.3 24.6 86 1.7 CALM 0 0 0 0 1008.4 1008.1 0.0
18/06:16am 27.2 33.5 24.7 86 1.7 CALM 0 6 0 3 1008.3 1008.0 0.0
18/06:00am 26.3 32.3 24.3 89 1.4 CALM 0 0 0 0 1008.1 1007.8 0.0
18/05:47am 25.6 31.3 23.7 89 1.3 CALM 0 2 0 1 1008.1 1007.8 0.0
18/05:30am 24.7 30.0 23.1 91 1.1 CALM 0 7 0 4 1007.8 1007.5 0.0
18/05:18am 24.1 29.3 22.9 93 0.8 CALM 0 6 0 3 1007.8 1007.5 0.0
18/05:17am 24.1 29.2 22.7 92 0.9 CALM 0 6 0 3 1007.8 1007.5 0.0
18/05:00am 23.9 27.8 22.9 94 0.7 SSW 7 9 4 5 1007.5 1007.2 0.0
18/04:30am 24.0 28.6 23.1 95 0.6 SSW 4 7 2 4 1007.2 1006.9 0.0
18/04:00am 23.5 26.8 22.5 94 0.7 SSW 9 11 5 6 1006.6 1006.3 0.0
18/03:30am 23.7 27.1 21.0 85 1.8 ENE 4 7 2 4 1006.1 1005.8 0.0
18/03:27am 24.0 28.2 21.7 87 1.5 ENE 2 7 1 4 1006.1 1005.8 0.0
18/03:00am 24.4 29.2 22.1 87 1.5 CALM 0 0 0 0 1006.0 1005.7 0.0
18/02:54am 24.7 29.9 22.8 89 1.3 CALM 0 0 0 0 1005.9 1005.6 0.0
18/02:48am 25.0 30.7 23.8 93 0.8 CALM 0 0 0 0 1005.9 1005.6 0.0
18/02:30am 24.7 30.0 23.1 91 1.1 CALM 0 0 0 0 1005.9 1005.6 0.0
18/02:00am 24.9 29.3 21.4 81 2.3 CALM 0 0 0 0 1006.1 1005.8 0.0
18/01:30am 25.2 30.6 23.3 89 1.3 CALM 0 0 0 0 1006.2 1005.9 0.0
18/01:00am 25.5 30.1 23.2 87 1.6 ENE 4 6 2 3 1006.3 1006.0 0.0
18/12:56am 25.4 30.2 23.5 89 1.3 ENE 4 6 2 3 1006.3 1006.0 0.0
18/12:55am 25.3 30.0 23.4 89 1.3 ENE 4 7 2 4 1006.3 1006.0 0.0
18/12:39am 25.6 31.2 23.5 88 1.4 CALM 0 0 0 0 1006.4 1006.1 0.0
18/12:30am 25.6 31.2 23.5 88 1.4 CALM 0 0 0 0 1006.4 1006.1 0.0
18/12:00am 26.3 30.8 23.6 85 1.9 ENE 6 7 3 4 1006.5 1006.2 0.0
 
Date/Time
WST
Temp
°C
App
Temp
°C
Dew
Point
°C
Rel
Hum
%
Delta-T
°C
Wind Press
QNH
hPa
Press
MSL
hPa
Rain since
9am
mm
Dir  Spd
km/h
Gust
km/h
Spd
kts
Gust
kts
17/11:30pm 26.5 30.4 23.0 81 2.4 NNE 7 9 4 5 1006.6 1006.3 0.0
17/11:00pm 27.3 31.6 23.7 81 2.5 N 7 9 4 5 1006.8 1006.5 0.0
17/10:30pm 27.5 31.3 23.5 79 2.7 N 9 11 5 6 1007.1 1006.8 0.0
17/10:00pm 28.3 31.6 23.9 77 3.0 N 13 17 7 9 1007.1 1006.8 0.0
17/09:30pm 28.9 31.7 23.6 73 3.7 N 15 17 8 9 1007.0 1006.7 0.0
17/09:00pm 29.6 32.3 23.5 69 4.2 NNE 15 19 8 10 1006.7 1006.4 0.0
17/08:48pm 29.8 32.4 23.3 68 4.5 NNE 15 19 8 10 1006.6 1006.3 0.0
17/08:34pm 29.9 32.1 22.6 65 5.0 NNE 15 19 8 10 1006.4 1006.1 0.0
17/08:30pm 29.9 32.1 22.6 65 5.0 NNE 15 19 8 10 1006.3 1006.0 0.0
17/08:17pm 30.1 31.4 21.7 60 5.7 NNE 17 19 9 10 1006.2 1005.9 0.0
17/08:07pm 30.2 31.2 21.0 58 6.1 NNE 17 20 9 11 1006.0 1005.7 0.0
17/08:00pm 30.2 31.2 20.2 55 6.6 NNE 15 17 8 9 1006.0 1005.7 0.0
17/07:30pm 31.0 30.9 18.7 48 8.0 N 17 20 9 11 1005.5 1005.2 0.0
17/07:00pm 31.4 31.1 17.3 43 9.0 NNE 15 20 8 11 1005.2 1004.9 0.0
17/06:30pm 31.6 30.0 16.0 39 9.8 NNE 19 28 10 15 1004.7 1004.4 0.0
17/06:00pm 32.8 33.6 12.4 29 12.2 CALM 0 0 0 0 1004.2 1003.9 0.0
17/05:30pm 36.4 35.1 9.1 19 15.7 S 6 9 3 5 1004.0 1003.7 0.0
17/05:00pm 38.2 36.2 7.0 15 17.6 SSE 7 11 4 6 1003.6 1003.3 0.0

Other Formats:

Comma delimited format used in spreadsheet applications
http://www.bom.gov.au/fwo/IDW60801/IDW60801.94216.axf

JavaScript Object Notation format (JSON) in row-major order
http://www.bom.gov.au/fwo/IDW60801/IDW60801.94216.json